Mentor on the Lake, Ohio
Current Conditions -  °F | °C
As of 6:45 PM on Saturday 25 Oct 2014 (Local Time) from KCGF Reporting Station
Haze Haze  
Wind Chill: 63°   Ceiling: Unl
Heat Index: 63°   Visibility: 6mi
Dew Point: 52°   Wind: 16mph
Humidity: 68%   Direction: 260°W
Pressure: 29.76"   Gusts: NA
Location:  41.6763°N, 81.3297°W
Report Text: KCGF 252245Z 26014KT 6SM HZ SKC 17/11 A2976
Loading
Personal Weather Stations






























Interactive Weather Map
Tropical Storm Tracking
New forecast layout! Learn more

10-Day Weather Forecast

Advertisements
Track Severe Weather on mobile